KROW/ROW METAR and TAF weather

Enter ICAO airport designator
Station Type Date Time Source
KROW METAR 2019/12/08 00:51 UTC NOAA

KROW 080051Z 21007KT 10SM CLR 09/04 A3008 RMK AO2 SLP172 T00940039


Station Type Date Time Source
KROW Decoded METAR 2019/12/08 00:51 UTC NOAA

ROSWELL INDUSTRIAL AIR CENTR, NM, United States (KROW) 33-18N 104-32W 1112M
Dec 07, 2019 - 07:51 PM EST / 2019.12.08 0051 UTC
Wind: from the SSW (210 degrees) at 8 MPH (7 KT):0
Visibility: 10 mile(s):0
Sky conditions: clear
Temperature: 48.9 F (9.4 C)
Dew Point: 39.0 F (3.9 C)
Relative Humidity: 68%
Pressure (altimeter): 30.08 in. Hg (1018 hPa)
ob: KROW 080051Z 21007KT 10SM CLR 09/04 A3008 RMK AO2 SLP172 T00940039
cycle: 1

Station Type Date Time Source
KROW TAF 2019/12/07 18:24 UTC NOAA

TAF KROW 071721Z 0718/0818 VRB03KT P6SM SCT250
FM072000 17007KT P6SM SCT250
FM080200 VRB05KT P6SM BKN200
FM081700 26012G18KT P6SM BKN150

Example: see airport list